createdAt,value
2018-04-16T00:00:14.368Z,135.87
2018-04-16T00:02:42.635Z,131.37
2018-04-16T00:05:11.728Z,128.77
2018-04-16T00:07:39.969Z,133.70
2018-04-16T00:10:09.651Z,135.30
2018-04-16T00:12:38.553Z,130.13
2018-04-16T00:15:08.718Z,130.07
2018-04-16T00:17:36.994Z,127.17
2018-04-16T00:20:05.361Z,126.13
2018-04-16T00:22:34.752Z,120.77
2018-04-16T00:25:03.803Z,111.87
2018-04-16T00:27:33.637Z,104.03
2018-04-16T00:30:03.421Z,116.37
2018-04-16T00:35:42.706Z,113.90
2018-04-16T00:38:20.616Z,109.30
2018-04-16T00:40:57.072Z,120.17
2018-04-16T00:43:31.224Z,105.60
2018-04-16T00:46:13.138Z,116.93
2018-04-16T00:48:47.221Z,83.03
2018-04-16T00:51:24.350Z,112.10
2018-04-16T00:54:17.152Z,103.87
2018-04-16T00:56:50.878Z,106.07
2018-04-16T00:59:26.316Z,100.33
2018-04-16T01:02:00.465Z,89.07
2018-04-16T01:04:34.424Z,112.77
2018-04-16T01:07:12.397Z,115.70
2018-04-16T01:09:47.039Z,109.03
2018-04-16T01:12:21.119Z,107.13
2018-04-16T01:14:55.247Z,102.30
2018-04-16T01:17:29.418Z,96.57
2018-04-16T01:20:06.997Z,92.00
2018-04-16T01:22:41.237Z,102.37
2018-04-16T01:25:15.212Z,99.67
2018-04-16T01:27:52.627Z,98.77
2018-04-16T01:30:28.889Z,104.13
2018-04-16T01:33:03.695Z,102.63
2018-04-16T01:35:37.788Z,97.83
2018-04-16T01:38:11.662Z,111.33
2018-04-16T01:40:45.510Z,116.97
2018-04-16T01:43:22.833Z,110.40
2018-04-16T01:45:56.764Z,105.03
2018-04-16T01:48:32.674Z,103.03
2018-04-16T01:51:06.586Z,109.80
2018-04-16T01:53:40.869Z,112.23
2018-04-16T01:56:17.072Z,114.10
2018-04-16T01:58:51.210Z,113.30
2018-04-16T02:01:26.214Z,136.53
2018-04-16T02:04:01.765Z,116.47
2018-04-16T02:06:36.759Z,120.10
2018-04-16T02:09:11.991Z,126.83
2018-04-16T02:11:46.795Z,126.07
2018-04-16T02:14:22.657Z,115.30
2018-04-16T02:16:56.986Z,127.63
2018-04-16T02:19:30.936Z,118.67
2018-04-16T02:22:05.533Z,122.40
2018-04-16T02:27:21.825Z,132.33
2018-04-16T02:29:58.951Z,134.30
2018-04-16T02:32:32.847Z,129.50
2018-04-16T02:35:16.147Z,115.77
2018-04-16T02:37:51.446Z,121.67
2018-04-16T02:40:29.320Z,116.47
2018-04-16T02:43:03.526Z,111.63
2018-04-16T02:45:39.061Z,106.67
2018-04-16T02:48:12.982Z,107.70
2018-04-16T02:50:46.996Z,110.47
2018-04-16T02:53:20.899Z,111.33
2018-04-16T02:55:54.508Z,123.70
2018-04-16T02:58:29.594Z,130.67
2018-04-16T03:01:03.542Z,126.93
2018-04-16T03:03:38.100Z,129.57
2018-04-16T03:06:13.735Z,130.50
2018-04-16T03:08:47.713Z,127.47
2018-04-16T03:11:21.941Z,122.07
2018-04-16T03:13:59.318Z,127.97
2018-04-16T03:16:33.518Z,134.00
2018-04-16T03:19:07.472Z,119.47
2018-04-16T03:21:42.938Z,115.70
2018-04-16T03:24:16.744Z,125.10
2018-04-16T03:26:52.473Z,119.27
2018-04-16T03:29:26.570Z,116.63
2018-04-16T03:32:00.696Z,119.60
2018-04-16T03:34:35.139Z,123.47
2018-04-16T03:37:09.267Z,119.47
2018-04-16T03:39:44.101Z,111.30
2018-04-16T03:42:21.581Z,137.47
2018-04-16T03:44:56.428Z,137.47
2018-04-16T03:47:30.304Z,124.23
2018-04-16T03:50:06.390Z,121.57
2018-04-16T03:55:43.785Z,149.07
2018-04-16T03:58:15.220Z,149.47
2018-04-16T04:00:43.728Z,142.60
2018-04-16T04:03:13.212Z,162.50
2018-04-16T04:05:43.040Z,154.37
2018-04-16T04:08:11.932Z,161.40
2018-04-16T04:10:40.352Z,148.07
2018-04-16T04:13:08.985Z,157.70
2018-04-16T04:15:37.762Z,155.37
2018-04-16T04:18:09.237Z,156.93
2018-04-16T04:20:37.530Z,157.90
2018-04-16T04:23:23.973Z,156.97
2018-04-16T04:26:10.948Z,182.53
2018-04-16T04:28:58.589Z,148.17
2018-04-16T04:31:27.014Z,133.23
2018-04-16T04:33:55.692Z,144.60
2018-04-16T04:36:24.482Z,156.27
2018-04-16T04:38:55.686Z,159.27
2018-04-16T04:41:24.387Z,144.20
2018-04-16T04:43:54.884Z,151.83
2018-04-16T04:46:23.449Z,139.63
2018-04-16T04:48:56.350Z,138.87
2018-04-16T04:51:24.615Z,149.20
2018-04-16T04:53:53.467Z,129.93
2018-04-16T04:56:21.892Z,153.53
2018-04-16T04:58:50.496Z,144.87
2018-04-16T05:01:19.420Z,141.30
2018-04-16T05:03:49.416Z,137.80
2018-04-16T05:06:17.999Z,136.37
2018-04-16T05:08:46.900Z,134.17
2018-04-16T05:11:16.054Z,129.20
2018-04-16T05:13:45.015Z,140.40
2018-04-16T05:16:17.632Z,130.70
2018-04-16T05:18:46.265Z,129.60
2018-04-16T05:21:16.177Z,131.47
2018-04-16T05:23:45.263Z,168.97
2018-04-16T05:26:16.370Z,132.77
2018-04-16T05:28:46.332Z,123.23
2018-04-16T05:31:16.301Z,124.47
2018-04-16T05:33:46.541Z,126.40
2018-04-16T05:36:15.134Z,125.10
2018-04-16T05:38:48.564Z,128.03
2018-04-16T05:41:17.192Z,135.03
2018-04-16T05:43:47.826Z,134.93
2018-04-16T05:46:17.024Z,129.23
2018-04-16T05:48:46.616Z,130.23
2018-04-16T05:51:15.264Z,129.63
2018-04-16T05:53:45.537Z,129.30
2018-04-16T05:56:13.898Z,135.40
2018-04-16T05:58:42.465Z,126.23
2018-04-16T06:01:11.050Z,116.73
2018-04-16T06:03:40.312Z,131.93
2018-04-16T06:06:09.004Z,164.43
2018-04-16T06:08:39.938Z,155.40
2018-04-16T06:11:09.297Z,152.20
2018-04-16T06:13:39.798Z,159.17
2018-04-16T06:16:09.202Z,148.80
2018-04-16T06:18:39.727Z,144.40
2018-04-16T06:21:09.088Z,159.77
2018-04-16T06:23:48.369Z,143.10
2018-04-16T06:26:17.015Z,129.53
2018-04-16T06:28:46.585Z,129.53
2018-04-16T06:31:15.628Z,134.50
2018-04-16T06:33:44.247Z,129.27
2018-04-16T06:36:13.094Z,142.27
2018-04-16T06:38:42.219Z,137.17
2018-04-16T06:41:10.513Z,111.33
2018-04-16T06:43:39.549Z,120.73
2018-04-16T06:46:07.941Z,123.80
2018-04-16T06:48:38.501Z,132.07
2018-04-16T06:51:07.975Z,129.10
2018-04-16T06:53:39.346Z,132.47
2018-04-16T06:56:08.402Z,142.37
2018-04-16T06:58:39.515Z,138.37
2018-04-16T07:01:18.166Z,135.57
2018-04-16T07:03:48.291Z,140.07
2018-04-16T07:06:16.848Z,152.67
2018-04-16T07:08:46.250Z,123.27
2018-04-16T07:11:15.922Z,150.17
2018-04-16T07:13:45.525Z,144.60
2018-04-16T07:16:13.993Z,161.43
2018-04-16T07:18:42.786Z,149.47
2018-04-16T07:21:12.481Z,131.33
2018-04-16T07:23:42.049Z,116.53
2018-04-16T07:26:10.613Z,123.40
2018-04-16T07:28:49.534Z,126.23
2018-04-16T07:31:21.506Z,127.73
2018-04-16T07:33:50.462Z,117.37
2018-04-16T07:36:21.775Z,91.77
2018-04-16T07:41:38.416Z,122.40
2018-04-16T07:44:06.835Z,116.73
2018-04-16T07:46:35.800Z,112.73
2018-04-16T07:49:06.217Z,115.10
2018-04-16T07:51:34.992Z,101.50
2018-04-16T07:54:05.197Z,95.23
2018-04-16T07:56:33.767Z,105.13
2018-04-16T07:59:02.588Z,136.63
2018-04-16T08:01:31.212Z,115.83
2018-04-16T08:04:02.195Z,128.93
2018-04-16T08:06:30.803Z,124.20
2018-04-16T08:09:01.192Z,144.60
2018-04-16T08:11:30.263Z,122.20
2018-04-16T08:13:59.249Z,110.50
2018-04-16T08:16:28.344Z,140.30
2018-04-16T08:18:58.443Z,154.10
2018-04-16T08:21:27.338Z,135.43
2018-04-16T08:23:57.362Z,129.07
2018-04-16T08:26:27.239Z,117.90
2018-04-16T08:29:00.095Z,104.17
2018-04-16T08:31:29.115Z,105.30
2018-04-16T08:33:59.068Z,115.63
2018-04-16T08:36:28.052Z,115.33
2018-04-16T08:38:58.233Z,118.77
2018-04-16T08:41:26.698Z,111.40
2018-04-16T08:43:55.487Z,98.07
2018-04-16T08:46:24.627Z,122.00
2018-04-16T08:48:53.444Z,169.70
2018-04-16T08:51:21.952Z,117.23
2018-04-16T08:53:51.464Z,123.23
2018-04-16T08:56:20.048Z,126.93
2018-04-16T08:58:49.114Z,152.00
2018-04-16T09:01:17.688Z,126.87
2018-04-16T09:03:48.578Z,142.33
2018-04-16T09:06:18.076Z,175.77
2018-04-16T09:09:00.365Z,186.87
2018-04-16T09:11:31.842Z,120.70
2018-04-16T09:14:00.906Z,160.50
2018-04-16T09:16:33.349Z,168.33
2018-04-16T09:19:01.923Z,172.33
2018-04-16T09:21:34.177Z,173.73
2018-04-16T09:24:03.072Z,181.43
2018-04-16T09:26:35.808Z,221.60
2018-04-16T09:29:04.190Z,213.67
2018-04-16T09:31:46.558Z,126.77
2018-04-16T09:34:16.262Z,138.43
2018-04-16T09:36:44.539Z,169.47
2018-04-16T09:39:17.360Z,188.83
2018-04-16T09:41:46.537Z,144.47
2018-04-16T09:44:16.708Z,104.23
2018-04-16T09:47:02.715Z,133.67
2018-04-16T09:49:31.375Z,120.33
2018-04-16T09:51:59.717Z,146.03
2018-04-16T09:54:32.334Z,115.43
2018-04-16T09:57:01.239Z,121.10
2018-04-16T09:59:30.713Z,94.57
2018-04-16T10:01:59.483Z,145.43
2018-04-16T10:04:31.626Z,115.90
2018-04-16T10:07:00.413Z,129.47
2018-04-16T10:09:31.710Z,138.23
2018-04-16T10:12:00.216Z,126.63
2018-04-16T10:14:32.916Z,132.40
2018-04-16T10:17:01.223Z,155.97
2018-04-16T10:19:31.522Z,159.97
2018-04-16T10:21:59.882Z,92.17
2018-04-16T10:24:30.410Z,120.40
2018-04-16T10:26:58.758Z,151.13
2018-04-16T10:29:30.483Z,119.30
2018-04-16T10:31:59.246Z,136.87
2018-04-16T10:34:29.496Z,126.97
2018-04-16T10:37:11.206Z,165.83
2018-04-16T10:39:40.061Z,138.30
2018-04-16T10:42:09.323Z,145.70
2018-04-16T10:44:39.920Z,147.00
2018-04-16T10:47:08.252Z,134.63
2018-04-16T10:49:38.627Z,146.10
2018-04-16T10:52:08.007Z,191.10
2018-04-16T10:54:37.150Z,140.43
2018-04-16T10:57:05.741Z,163.60
2018-04-16T10:59:34.718Z,192.30
2018-04-16T11:02:03.111Z,153.00
2018-04-16T11:04:39.977Z,150.50
2018-04-16T11:07:08.748Z,160.93
2018-04-16T11:09:38.671Z,143.33
2018-04-16T11:12:17.984Z,158.73
2018-04-16T11:14:46.633Z,115.77
2018-04-16T11:17:24.872Z,133.20
2018-04-16T11:19:59.637Z,151.77
2018-04-16T11:22:42.947Z,141.87
2018-04-16T11:25:13.461Z,143.20
2018-04-16T11:27:42.031Z,155.43
2018-04-16T11:30:12.743Z,139.03
2018-04-16T11:32:42.766Z,136.83
2018-04-16T11:35:12.130Z,143.03
2018-04-16T11:37:40.733Z,143.57
2018-04-16T11:40:18.507Z,168.70
2018-04-16T11:42:46.849Z,134.97
2018-04-16T11:45:17.547Z,145.70
2018-04-16T11:47:46.273Z,152.50
2018-04-16T11:50:14.589Z,134.87
2018-04-16T11:52:45.102Z,146.63
2018-04-16T11:55:13.763Z,167.03
2018-04-16T11:57:43.361Z,130.00
2018-04-16T12:00:12.400Z,110.80
2018-04-16T12:02:41.869Z,146.30
2018-04-16T12:07:57.452Z,156.97
2018-04-16T12:10:27.124Z,106.30
2018-04-16T12:12:55.645Z,176.27
2018-04-16T12:15:33.579Z,149.97
2018-04-16T12:18:02.611Z,150.27
2018-04-16T12:20:48.987Z,184.27
2018-04-16T12:23:23.301Z,155.60
2018-04-16T12:25:53.279Z,116.70
2018-04-16T12:28:21.637Z,143.10
2018-04-16T12:31:01.156Z,130.73
2018-04-16T12:33:30.163Z,160.07
2018-04-16T12:36:00.165Z,157.87
2018-04-16T12:38:28.730Z,117.90
2018-04-16T12:40:59.216Z,168.30
2018-04-16T12:43:27.728Z,173.70
2018-04-16T12:45:56.969Z,173.80
2018-04-16T12:48:31.635Z,179.17
2018-04-16T12:51:01.695Z,174.90
2018-04-16T12:53:30.224Z,141.90
2018-04-16T12:56:00.115Z,178.07
2018-04-16T12:58:36.630Z,174.57
2018-04-16T13:01:13.141Z,168.97
2018-04-16T13:03:45.635Z,156.33
2018-04-16T13:06:14.107Z,170.47
2018-04-16T13:08:47.095Z,177.33
2018-04-16T13:11:17.931Z,119.23
2018-04-16T13:13:56.907Z,216.40
2018-04-16T13:16:25.557Z,132.77
2018-04-16T13:18:53.916Z,223.90
2018-04-16T13:21:28.289Z,183.87
2018-04-16T13:23:56.714Z,144.70
2018-04-16T13:26:29.240Z,199.07
2018-04-16T13:28:57.642Z,214.93
2018-04-16T13:31:26.149Z,224.60
2018-04-16T13:33:56.520Z,174.03
2018-04-16T13:36:25.068Z,244.53
2018-04-16T13:41:40.112Z,192.77
2018-04-16T13:44:23.292Z,132.73
2018-04-16T22:36:04.963Z,57.03
2018-04-16T22:38:34.704Z,56.47
2018-04-16T22:41:07.973Z,54.40
2018-04-16T22:43:36.980Z,61.07
2018-04-16T22:46:18.047Z,66.10
2018-04-16T22:48:48.149Z,70.27
2018-04-16T22:51:16.477Z,63.17
2018-04-16T22:53:46.809Z,63.63
2018-04-16T22:56:15.093Z,72.87
2018-04-16T22:58:45.397Z,65.40
2018-04-16T23:01:13.725Z,70.87
2018-04-16T23:03:43.337Z,67.80
2018-04-16T23:06:11.779Z,65.57
2018-04-16T23:08:40.955Z,65.87
2018-04-16T23:11:09.236Z,66.97
2018-04-16T23:13:39.954Z,68.93
2018-04-16T23:16:08.256Z,65.30
2018-04-16T23:18:38.423Z,67.90
2018-04-16T23:21:06.796Z,68.13
2018-04-16T23:23:35.978Z,66.00
2018-04-16T23:26:05.023Z,70.50
2018-04-16T23:28:33.245Z,74.93
2018-04-16T23:31:04.177Z,71.07
2018-04-16T23:33:32.727Z,67.37
2018-04-16T23:36:03.761Z,70.00
2018-04-16T23:38:32.797Z,72.20
2018-04-16T23:41:01.177Z,78.57
2018-04-16T23:43:29.648Z,67.67
2018-04-16T23:45:58.349Z,65.40
2018-04-16T23:48:27.615Z,63.03
2018-04-16T23:50:57.841Z,69.73
2018-04-16T23:53:27.224Z,69.07
2018-04-16T23:55:57.613Z,69.50
2018-04-16T23:58:26.317Z,60.13
